(°C)
-1°
-1°
-1°
-1°
-1°
(°C)
-6°
-7°
-7°
-7°
-6°
-6°
-6°
NO
NO
NO
NO
NO
NO
NO
(km/h)
16-32
16-31
15-26
14-26
13-25
13-27
13-26
(mm)
0
0
0
0
0
0
0
(%)
0
0
0
0
0
0
0

Elevação do sol

/ -43.2°
sun-icon
UV 2
07:02
17:11
Minguante gibosa (233°)
19:24
12:08

METAR para 51.82°N 39.23°L (UUOO)

Hora Condições Temperatura/
Ponto de condensação
Vento Visibilidade Tempo Nuvens Pressão Mudança Bruto
VFR 0°C / -3°C 310º 10kt >10km - Clouds and Visibility OK 1023 No Significant change. Runway 30: Clear and dry, 1-10% contamination with <1mm, friction coefficient 0.70. UUOO 242300Z 31005MPS CAVOK M00/M03 Q1023 R30/010070 NOSIG RMK QFE754
VFR 0°C / -3°C 310º 10kt >10km - Clouds and Visibility OK 1023 No Significant change. Runway 30: Clear and dry, 1-10% contamination with <1mm, friction coefficient 0.70. UUOO 242230Z 31005MPS CAVOK 00/M03 Q1023 R30/010070 NOSIG RMK QFE754
VFR 1°C / -3°C 320º 12kt >10km - Clouds and Visibility OK 1023 No Significant change. Runway 30: Clear and dry, 1-10% contamination with <1mm, friction coefficient 0.70. UUOO 242200Z 32006MPS CAVOK 01/M03 Q1023 R30/010070 NOSIG RMK QFE753
VFR 2°C / -2°C 330º 10kt >10km - Clouds and Visibility OK 1022 No Significant change. Runway 30: Wet or puddles, 51-100% contamination with 1mm, friction coefficient 0.55. UUOO 242130Z 33005MPS CAVOK 02/M02 Q1022 R30/290155 NOSIG RMK QFE753
MVFR 2°C / 0°C 310º 12kt >10km - Broken Clouds 2600ft 1022 No Significant change. Runway 30: Wet or puddles, 51-100% contamination with 1mm, friction coefficient 0.55. UUOO 242100Z 31006MPS 9999 BKN026 02/M00 Q1022 R30/290155 NOSIG RMK QFE753
VFR 3°C / 0°C 310º 14kt >10km - Clouds and Visibility OK 1022 No Significant change. Runway 30: Wet or puddles, 51-100% contamination with 1mm, friction coefficient 0.55. UUOO 242030Z 31007MPS CAVOK 03/00 Q1022 R30/290155 NOSIG RMK QFE753
VFR 4°C / 0°C 310º 10kt >10km - Broken Clouds 3800ft 1022 No Significant change. Runway 30: Wet or puddles, 51-100% contamination with 1mm, friction coefficient 0.55. UUOO 242000Z 31005MPS 9999 BKN038 04/M00 Q1022 R30/290155 NOSIG RMK QFE753
VFR 4°C / 0°C 310º 10kt >10km - Clouds and Visibility OK 1021 No Significant change. Runway 30: Wet or puddles, 51-100% contamination with 1mm, friction coefficient 0.55. UUOO 241930Z 31005MPS CAVOK 04/00 Q1021 R30/290155 NOSIG RMK QFE752
VFR 4°C / 0°C 320º 12kt >10km - Clouds and Visibility OK 1021 No Significant change. Runway 30: Wet or puddles, 51-100% contamination with 1mm, friction coefficient 0.55. UUOO 241900Z 32006MPS CAVOK 04/00 Q1021 R30/290155 NOSIG RMK QFE752
VFR 4°C / 1°C 300º 10kt >10km - Broken Clouds 7700ft 1021 No Significant change. Runway 30: Wet or puddles, 51-100% contamination with 1mm, friction coefficient 0.55. UUOO 241830Z 30005MPS 9999 BKN077CB 04/01 Q1021 R30/290155 NOSIG RMK QFE752
VFR 3°C / 1°C 300º 6kt >10km - Broken Clouds 7800ft 1021 No Significant change. Runway 30: Wet or puddles, 51-100% contamination with 1mm, friction coefficient 0.55. UUOO 241800Z 30003MPS 9999 BKN078CB 03/01 Q1021 R30/290155 NOSIG RMK QFE752
VFR 3°C / 1°C 310º 6kt >10km - Broken Clouds 4900ft 1020 No Significant change. Runway 30: Wet or puddles, 51-100% contamination with 1mm, friction coefficient 0.55. UUOO 241730Z 31003MPS 9999 BKN049CB 03/01 Q1020 R30/290155 NOSIG RMK QFE752
MVFR 3°C / 1°C 330º 16kt 9000m Light Showers Rain 3.00mm precipitation Vertical Visibility of 0ft. 1020 No Significant change. Runway 30: Wet or puddles, 51-100% contamination with 1mm, friction coefficient 0.55. UUOO 241700Z 33008MPS 9000 -SHRA BKN010 OVC///CB 03/01 Q1020 R30/290155 NOSIG RMK QFE752
MVFR 5°C / 1°C 300º 12kt 9000m - Broken Clouds 2900ft 1020 No Significant change. Runway 30: Clear and dry, 1-10% contamination with <1mm, friction coefficient 0.70. UUOO 241630Z 30006MPS 9000 BKN029CB 05/01 Q1020 R30/010070 NOSIG RMK QFE751
VFR 6°C / 2°C 280º 10kt >10km - Broken Clouds 3700ft 1019 No Significant change. Runway 30: Clear and dry, 1-10% contamination with <1mm, friction coefficient 0.70. UUOO 241600Z 28005MPS 9999 BKN037CB 06/02 Q1019 R30/010070 NOSIG RMK QFE751
VFR 5°C / 2°C 290º 12kt >10km - Broken Clouds 4300ft 1019 No Significant change. Runway 30: Clear and dry, 1-10% contamination with <1mm, friction coefficient 0.70. UUOO 241530Z 29006MPS 9999 BKN043CB 05/02 Q1019 R30/010070 NOSIG RMK QFE751
MVFR 7°C / 1°C 300º 10kt >10km - Broken Clouds 2700ft 1019 No Significant change. Runway 30: Clear and dry, 1-10% contamination with <1mm, friction coefficient 0.70. UUOO 241500Z 30005MPS 9999 BKN027CB 07/01 Q1019 R30/010070 NOSIG RMK QFE750
MVFR 7°C / 1°C 290º 10kt >10km - Broken Clouds 2700ft 1018 No Significant change. Runway 30: Clear and dry, 1-10% contamination with <1mm, friction coefficient 0.70. UUOO 241430Z 29005MPS 9999 BKN027 07/01 Q1018 R30/010070 NOSIG RMK QFE750
MVFR 7°C / 0°C 280º 10kt >10km - Broken Clouds 3000ft 1018 No Significant change. Runway 30: Clear and dry, 1-10% contamination with <1mm, friction coefficient 0.70. UUOO 241400Z 28005MPS 9999 BKN030 07/00 Q1018 R30/010070 NOSIG RMK QFE750
VFR 7°C / 0°C 290º 12kt >10km - Broken Clouds 3500ft 1018 No Significant change. Runway 30: Clear and dry, 1-10% contamination with <1mm, friction coefficient 0.70. UUOO 241330Z 29006MPS 9999 BKN035CB 07/00 Q1018 R30/010070 NOSIG RMK QFE750
VFR 7°C / 0°C 280º 10kt >10km - Broken Clouds 3200ft 1018 No Significant change. Runway 30: Clear and dry, 1-10% contamination with <1mm, friction coefficient 0.70. UUOO 241300Z 28005MPS 9999 BKN032CB 07/00 Q1018 R30/010070 NOSIG RMK QFE750
MVFR 7°C / 0°C 280º 10kt >10km - Broken Clouds 3000ft 1018 No Significant change. Runway 30: Clear and dry, 1-10% contamination with <1mm, friction coefficient 0.70. UUOO 241230Z 28005MPS 9999 BKN030CB 07/M00 Q1018 R30/010070 NOSIG RMK QFE750
VFR 7°C / 0°C 280º 14kt >10km - Broken Clouds 3100ft 1018 No Significant change. Runway 30: Clear and dry, 1-10% contamination with <1mm, friction coefficient 0.70. UUOO 241200Z 28007MPS 9999 BKN031CB 07/M00 Q1018 R30/010070 NOSIG RMK QFE750
VFR 8°C / -1°C 280º 12kt >10km - Broken Clouds 3200ft 1018 No Significant change. Runway 30: Clear and dry, 1-10% contamination with <1mm, friction coefficient 0.70. UUOO 241130Z 28006MPS 9999 BKN032CB 08/M01 Q1018 R30/010070 NOSIG RMK QFE750

VFR

0°C / -3°C

[Mais]
Vento 310º 10kt
Visibilidade >10km
Tempo -
Nuvens Clouds and Visibility OK
Pressão 1023
Mudança No Significant change. Runway 30: Clear and dry, 1-10% contamination with <1mm, friction coefficient 0.70.
Bruto UUOO 242300Z 31005MPS CAVOK M00/M03 Q1023 R30/010070 NOSIG RMK QFE754

VFR

0°C / -3°C

[Mais]
Vento 310º 10kt
Visibilidade >10km
Tempo -
Nuvens Clouds and Visibility OK
Pressão 1023
Mudança No Significant change. Runway 30: Clear and dry, 1-10% contamination with <1mm, friction coefficient 0.70.
Bruto UUOO 242230Z 31005MPS CAVOK 00/M03 Q1023 R30/010070 NOSIG RMK QFE754

VFR

1°C / -3°C

[Mais]
Vento 320º 12kt
Visibilidade >10km
Tempo -
Nuvens Clouds and Visibility OK
Pressão 1023
Mudança No Significant change. Runway 30: Clear and dry, 1-10% contamination with <1mm, friction coefficient 0.70.
Bruto UUOO 242200Z 32006MPS CAVOK 01/M03 Q1023 R30/010070 NOSIG RMK QFE753

VFR

2°C / -2°C

[Mais]
Vento 330º 10kt
Visibilidade >10km
Tempo -
Nuvens Clouds and Visibility OK
Pressão 1022
Mudança No Significant change. Runway 30: Wet or puddles, 51-100% contamination with 1mm, friction coefficient 0.55.
Bruto UUOO 242130Z 33005MPS CAVOK 02/M02 Q1022 R30/290155 NOSIG RMK QFE753

MVFR

2°C / 0°C

[Mais]
Vento 310º 12kt
Visibilidade >10km
Tempo -
Nuvens Broken Clouds 2600ft
Pressão 1022
Mudança No Significant change. Runway 30: Wet or puddles, 51-100% contamination with 1mm, friction coefficient 0.55.
Bruto UUOO 242100Z 31006MPS 9999 BKN026 02/M00 Q1022 R30/290155 NOSIG RMK QFE753

VFR

3°C / 0°C

[Mais]
Vento 310º 14kt
Visibilidade >10km
Tempo -
Nuvens Clouds and Visibility OK
Pressão 1022
Mudança No Significant change. Runway 30: Wet or puddles, 51-100% contamination with 1mm, friction coefficient 0.55.
Bruto UUOO 242030Z 31007MPS CAVOK 03/00 Q1022 R30/290155 NOSIG RMK QFE753

VFR

4°C / 0°C

[Mais]
Vento 310º 10kt
Visibilidade >10km
Tempo -
Nuvens Broken Clouds 3800ft
Pressão 1022
Mudança No Significant change. Runway 30: Wet or puddles, 51-100% contamination with 1mm, friction coefficient 0.55.
Bruto UUOO 242000Z 31005MPS 9999 BKN038 04/M00 Q1022 R30/290155 NOSIG RMK QFE753

VFR

4°C / 0°C

[Mais]
Vento 310º 10kt
Visibilidade >10km
Tempo -
Nuvens Clouds and Visibility OK
Pressão 1021
Mudança No Significant change. Runway 30: Wet or puddles, 51-100% contamination with 1mm, friction coefficient 0.55.
Bruto UUOO 241930Z 31005MPS CAVOK 04/00 Q1021 R30/290155 NOSIG RMK QFE752

VFR

4°C / 0°C

[Mais]
Vento 320º 12kt
Visibilidade >10km
Tempo -
Nuvens Clouds and Visibility OK
Pressão 1021
Mudança No Significant change. Runway 30: Wet or puddles, 51-100% contamination with 1mm, friction coefficient 0.55.
Bruto UUOO 241900Z 32006MPS CAVOK 04/00 Q1021 R30/290155 NOSIG RMK QFE752

VFR

4°C / 1°C

[Mais]
Vento 300º 10kt
Visibilidade >10km
Tempo -
Nuvens Broken Clouds 7700ft
Pressão 1021
Mudança No Significant change. Runway 30: Wet or puddles, 51-100% contamination with 1mm, friction coefficient 0.55.
Bruto UUOO 241830Z 30005MPS 9999 BKN077CB 04/01 Q1021 R30/290155 NOSIG RMK QFE752

VFR

3°C / 1°C

[Mais]
Vento 300º 6kt
Visibilidade >10km
Tempo -
Nuvens Broken Clouds 7800ft
Pressão 1021
Mudança No Significant change. Runway 30: Wet or puddles, 51-100% contamination with 1mm, friction coefficient 0.55.
Bruto UUOO 241800Z 30003MPS 9999 BKN078CB 03/01 Q1021 R30/290155 NOSIG RMK QFE752

VFR

3°C / 1°C

[Mais]
Vento 310º 6kt
Visibilidade >10km
Tempo -
Nuvens Broken Clouds 4900ft
Pressão 1020
Mudança No Significant change. Runway 30: Wet or puddles, 51-100% contamination with 1mm, friction coefficient 0.55.
Bruto UUOO 241730Z 31003MPS 9999 BKN049CB 03/01 Q1020 R30/290155 NOSIG RMK QFE752

MVFR

3°C / 1°C

[Mais]
Vento 330º 16kt
Visibilidade 9000m
Tempo Light Showers Rain 3.00mm precipitation
Nuvens Vertical Visibility of 0ft.
Pressão 1020
Mudança No Significant change. Runway 30: Wet or puddles, 51-100% contamination with 1mm, friction coefficient 0.55.
Bruto UUOO 241700Z 33008MPS 9000 -SHRA BKN010 OVC///CB 03/01 Q1020 R30/290155 NOSIG RMK QFE752

MVFR

5°C / 1°C

[Mais]
Vento 300º 12kt
Visibilidade 9000m
Tempo -
Nuvens Broken Clouds 2900ft
Pressão 1020
Mudança No Significant change. Runway 30: Clear and dry, 1-10% contamination with <1mm, friction coefficient 0.70.
Bruto UUOO 241630Z 30006MPS 9000 BKN029CB 05/01 Q1020 R30/010070 NOSIG RMK QFE751

VFR

6°C / 2°C

[Mais]
Vento 280º 10kt
Visibilidade >10km
Tempo -
Nuvens Broken Clouds 3700ft
Pressão 1019
Mudança No Significant change. Runway 30: Clear and dry, 1-10% contamination with <1mm, friction coefficient 0.70.
Bruto UUOO 241600Z 28005MPS 9999 BKN037CB 06/02 Q1019 R30/010070 NOSIG RMK QFE751

VFR

5°C / 2°C

[Mais]
Vento 290º 12kt
Visibilidade >10km
Tempo -
Nuvens Broken Clouds 4300ft
Pressão 1019
Mudança No Significant change. Runway 30: Clear and dry, 1-10% contamination with <1mm, friction coefficient 0.70.
Bruto UUOO 241530Z 29006MPS 9999 BKN043CB 05/02 Q1019 R30/010070 NOSIG RMK QFE751

MVFR

7°C / 1°C

[Mais]
Vento 300º 10kt
Visibilidade >10km
Tempo -
Nuvens Broken Clouds 2700ft
Pressão 1019
Mudança No Significant change. Runway 30: Clear and dry, 1-10% contamination with <1mm, friction coefficient 0.70.
Bruto UUOO 241500Z 30005MPS 9999 BKN027CB 07/01 Q1019 R30/010070 NOSIG RMK QFE750

MVFR

7°C / 1°C

[Mais]
Vento 290º 10kt
Visibilidade >10km
Tempo -
Nuvens Broken Clouds 2700ft
Pressão 1018
Mudança No Significant change. Runway 30: Clear and dry, 1-10% contamination with <1mm, friction coefficient 0.70.
Bruto UUOO 241430Z 29005MPS 9999 BKN027 07/01 Q1018 R30/010070 NOSIG RMK QFE750

MVFR

7°C / 0°C

[Mais]
Vento 280º 10kt
Visibilidade >10km
Tempo -
Nuvens Broken Clouds 3000ft
Pressão 1018
Mudança No Significant change. Runway 30: Clear and dry, 1-10% contamination with <1mm, friction coefficient 0.70.
Bruto UUOO 241400Z 28005MPS 9999 BKN030 07/00 Q1018 R30/010070 NOSIG RMK QFE750

VFR

7°C / 0°C

[Mais]
Vento 290º 12kt
Visibilidade >10km
Tempo -
Nuvens Broken Clouds 3500ft
Pressão 1018
Mudança No Significant change. Runway 30: Clear and dry, 1-10% contamination with <1mm, friction coefficient 0.70.
Bruto UUOO 241330Z 29006MPS 9999 BKN035CB 07/00 Q1018 R30/010070 NOSIG RMK QFE750

VFR

7°C / 0°C

[Mais]
Vento 280º 10kt
Visibilidade >10km
Tempo -
Nuvens Broken Clouds 3200ft
Pressão 1018
Mudança No Significant change. Runway 30: Clear and dry, 1-10% contamination with <1mm, friction coefficient 0.70.
Bruto UUOO 241300Z 28005MPS 9999 BKN032CB 07/00 Q1018 R30/010070 NOSIG RMK QFE750

MVFR

7°C / 0°C

[Mais]
Vento 280º 10kt
Visibilidade >10km
Tempo -
Nuvens Broken Clouds 3000ft
Pressão 1018
Mudança No Significant change. Runway 30: Clear and dry, 1-10% contamination with <1mm, friction coefficient 0.70.
Bruto UUOO 241230Z 28005MPS 9999 BKN030CB 07/M00 Q1018 R30/010070 NOSIG RMK QFE750

VFR

7°C / 0°C

[Mais]
Vento 280º 14kt
Visibilidade >10km
Tempo -
Nuvens Broken Clouds 3100ft
Pressão 1018
Mudança No Significant change. Runway 30: Clear and dry, 1-10% contamination with <1mm, friction coefficient 0.70.
Bruto UUOO 241200Z 28007MPS 9999 BKN031CB 07/M00 Q1018 R30/010070 NOSIG RMK QFE750

VFR

8°C / -1°C

[Mais]
Vento 280º 12kt
Visibilidade >10km
Tempo -
Nuvens Broken Clouds 3200ft
Pressão 1018
Mudança No Significant change. Runway 30: Clear and dry, 1-10% contamination with <1mm, friction coefficient 0.70.
Bruto UUOO 241130Z 28006MPS 9999 BKN032CB 08/M01 Q1018 R30/010070 NOSIG RMK QFE750

TAF para 51.82°N 39.23°L (UUOO)

From till


From till Wind 320º 10kt. Visibility 10km or more. Scattered Clouds 1600ft.

Bruto: TAF UUOO 242000Z 2421/2506 32005MPS 9999 SCT016CB

Imagens atuais de satélite e precipitação para 51.82°N 39.23°L

O marcador de lugar é colocado em 51.82°N 39.23°L. [Mais]

A imagem de satélite em tempo real combina luz visível durante o dia com radiação infravermelha durante a noite. À noite, a imagem não é escura, pois a radiação infravermelha pode detectar diferenças de temperatura. Infelizmente, nuvens baixas e neblina são difíceis de distinguir das temperaturas do solo e, portanto, podem ser quase invisíveis durante a noite. As imagens de satélite Meteosat para a Europa são atualizadas em tempo real a cada 5 minutos. GOES-16/GOES-17 ( América do Norte e do Sul) e Himawari (Ásia) são atualizadas a cada 10 minutos.

Copyright 2021 EUMETSAT / meteoblue. / Copyright 2021 meteoblue

Radar e precipitação nowcast para 51.82°N 39.23°L

Chuvisco
Leve
Moderado
Forte
Muito forte
Granizo

O marcador do lugar é colocado em 51.82°N 39.23°L. Esta animação mostra o radar de precipitação para a última hora, assim como a 1h previsão. A queda de neve pode ser invisível para o radar. A intensidade da precipitação é codificada por cores, variando do azul claro ao laranja.